sensor_id;sensor_type;location;lat;lon;timestamp;P1;durP1;ratioP1;P2;durP2;ratioP2
173;SDS011;75;48.784;9.364;2022-10-04T00:01:07;23.70;;;14.30;;
173;SDS011;75;48.784;9.364;2022-10-04T00:03:43;26.20;;;13.83;;
173;SDS011;75;48.784;9.364;2022-10-04T00:06:13;24.33;;;14.17;;
173;SDS011;75;48.784;9.364;2022-10-04T00:08:41;22.40;;;14.80;;
173;SDS011;75;48.784;9.364;2022-10-04T00:11:23;21.60;;;14.03;;
173;SDS011;75;48.784;9.364;2022-10-04T00:13:53;28.43;;;14.40;;
173;SDS011;75;48.784;9.364;2022-10-04T00:16:22;28.83;;;14.33;;
173;SDS011;75;48.784;9.364;2022-10-04T00:18:59;25.20;;;14.50;;
173;SDS011;75;48.784;9.364;2022-10-04T00:21:32;26.60;;;13.60;;
173;SDS011;75;48.784;9.364;2022-10-04T00:24:18;25.97;;;13.87;;
173;SDS011;75;48.784;9.364;2022-10-04T00:34:44;27.23;;;13.97;;
173;SDS011;75;48.784;9.364;2022-10-04T00:37:15;27.23;;;14.07;;
173;SDS011;75;48.784;9.364;2022-10-04T00:39:42;25.70;;;13.13;;
173;SDS011;75;48.784;9.364;2022-10-04T00:45:01;25.53;;;13.53;;
173;SDS011;75;48.784;9.364;2022-10-04T00:47:30;28.13;;;14.00;;
173;SDS011;75;48.784;9.364;2022-10-04T00:52:46;23.87;;;14.20;;
173;SDS011;75;48.784;9.364;2022-10-04T00:55:23;25.73;;;13.93;;
173;SDS011;75;48.784;9.364;2022-10-04T00:57:53;27.30;;;14.20;;
173;SDS011;75;48.784;9.364;2022-10-04T01:00:23;21.87;;;13.30;;
173;SDS011;75;48.784;9.364;2022-10-04T01:03:06;25.20;;;13.53;;
173;SDS011;75;48.784;9.364;2022-10-04T01:05:36;22.40;;;14.87;;
173;SDS011;75;48.784;9.364;2022-10-04T01:08:09;25.30;;;14.40;;
173;SDS011;75;48.784;9.364;2022-10-04T01:13:15;27.40;;;15.63;;
173;SDS011;75;48.784;9.364;2022-10-04T01:15:43;25.23;;;15.67;;
173;SDS011;75;48.784;9.364;2022-10-04T01:20:52;25.43;;;14.37;;
173;SDS011;75;48.784;9.364;2022-10-04T01:26:00;24.63;;;13.90;;
173;SDS011;75;48.784;9.364;2022-10-04T01:28:27;26.73;;;13.73;;
173;SDS011;75;48.784;9.364;2022-10-04T01:30:53;24.43;;;12.90;;
173;SDS011;75;48.784;9.364;2022-10-04T01:33:20;28.93;;;15.30;;
173;SDS011;75;48.784;9.364;2022-10-04T01:35:46;24.00;;;14.60;;
173;SDS011;75;48.784;9.364;2022-10-04T01:38:12;22.47;;;12.40;;
173;SDS011;75;48.784;9.364;2022-10-04T01:40:41;25.03;;;12.93;;
173;SDS011;75;48.784;9.364;2022-10-04T01:43:11;19.93;;;12.00;;
173;SDS011;75;48.784;9.364;2022-10-04T01:45:41;30.27;;;14.80;;
173;SDS011;75;48.784;9.364;2022-10-04T01:48:09;24.97;;;13.40;;
173;SDS011;75;48.784;9.364;2022-10-04T01:50:47;19.97;;;12.50;;
173;SDS011;75;48.784;9.364;2022-10-04T01:53:20;26.80;;;13.80;;
173;SDS011;75;48.784;9.364;2022-10-04T01:55:52;24.10;;;13.13;;
173;SDS011;75;48.784;9.364;2022-10-04T01:58:20;20.10;;;11.30;;
173;SDS011;75;48.784;9.364;2022-10-04T02:00:49;24.50;;;12.73;;
173;SDS011;75;48.784;9.364;2022-10-04T02:03:19;19.77;;;11.77;;
173;SDS011;75;48.784;9.364;2022-10-04T02:05:53;21.67;;;12.50;;
173;SDS011;75;48.784;9.364;2022-10-04T02:08:26;27.07;;;13.67;;
173;SDS011;75;48.784;9.364;2022-10-04T02:10:52;24.53;;;13.20;;
173;SDS011;75;48.784;9.364;2022-10-04T02:13:19;22.30;;;12.30;;
173;SDS011;75;48.784;9.364;2022-10-04T02:15:46;19.30;;;12.50;;
173;SDS011;75;48.784;9.364;2022-10-04T02:18:14;27.40;;;13.17;;
173;SDS011;75;48.784;9.364;2022-10-04T02:20:41;24.67;;;14.00;;
173;SDS011;75;48.784;9.364;2022-10-04T02:23:08;25.37;;;13.13;;
173;SDS011;75;48.784;9.364;2022-10-04T02:25:35;22.90;;;13.23;;
173;SDS011;75;48.784;9.364;2022-10-04T02:28:01;28.00;;;15.63;;
173;SDS011;75;48.784;9.364;2022-10-04T02:30:28;28.43;;;14.90;;
173;SDS011;75;48.784;9.364;2022-10-04T02:32:55;27.20;;;14.33;;
173;SDS011;75;48.784;9.364;2022-10-04T02:35:22;27.60;;;14.63;;
173;SDS011;75;48.784;9.364;2022-10-04T02:37:51;25.67;;;14.33;;
173;SDS011;75;48.784;9.364;2022-10-04T02:40:20;22.93;;;13.67;;
173;SDS011;75;48.784;9.364;2022-10-04T02:43:11;23.37;;;14.10;;
173;SDS011;75;48.784;9.364;2022-10-04T02:45:43;30.20;;;15.50;;
173;SDS011;75;48.784;9.364;2022-10-04T02:48:19;24.00;;;13.80;;
173;SDS011;75;48.784;9.364;2022-10-04T02:50:48;24.17;;;14.20;;
173;SDS011;75;48.784;9.364;2022-10-04T02:55:41;22.70;;;13.17;;
173;SDS011;75;48.784;9.364;2022-10-04T02:58:08;24.73;;;13.97;;
173;SDS011;75;48.784;9.364;2022-10-04T03:00:43;23.20;;;13.50;;
173;SDS011;75;48.784;9.364;2022-10-04T03:03:18;25.90;;;13.80;;
173;SDS011;75;48.784;9.364;2022-10-04T03:05:57;24.70;;;13.50;;
173;SDS011;75;48.784;9.364;2022-10-04T03:08:25;22.10;;;12.80;;
173;SDS011;75;48.784;9.364;2022-10-04T03:10:51;24.93;;;13.37;;
173;SDS011;75;48.784;9.364;2022-10-04T03:13:17;22.63;;;13.70;;
173;SDS011;75;48.784;9.364;2022-10-04T03:15:45;21.30;;;13.07;;
173;SDS011;75;48.784;9.364;2022-10-04T03:18:12;23.67;;;14.40;;
173;SDS011;75;48.784;9.364;2022-10-04T03:20:39;23.63;;;13.50;;
173;SDS011;75;48.784;9.364;2022-10-04T03:23:05;26.10;;;14.80;;
173;SDS011;75;48.784;9.364;2022-10-04T03:25:50;21.37;;;13.67;;
173;SDS011;75;48.784;9.364;2022-10-04T03:28:16;22.43;;;13.83;;
173;SDS011;75;48.784;9.364;2022-10-04T03:30:43;18.93;;;13.27;;
173;SDS011;75;48.784;9.364;2022-10-04T03:33:17;23.67;;;13.63;;
173;SDS011;75;48.784;9.364;2022-10-04T03:35:45;26.60;;;15.00;;
173;SDS011;75;48.784;9.364;2022-10-04T03:38:12;25.73;;;14.57;;
173;SDS011;75;48.784;9.364;2022-10-04T03:40:39;29.37;;;17.93;;
173;SDS011;75;48.784;9.364;2022-10-04T03:43:07;30.43;;;16.87;;
173;SDS011;75;48.784;9.364;2022-10-04T03:45:36;28.67;;;15.00;;
173;SDS011;75;48.784;9.364;2022-10-04T03:48:05;21.23;;;14.37;;
173;SDS011;75;48.784;9.364;2022-10-04T03:50:32;28.50;;;13.83;;
173;SDS011;75;48.784;9.364;2022-10-04T03:53:00;26.77;;;13.57;;
173;SDS011;75;48.784;9.364;2022-10-04T03:55:32;22.70;;;13.13;;
173;SDS011;75;48.784;9.364;2022-10-04T03:57:59;24.03;;;13.70;;
173;SDS011;75;48.784;9.364;2022-10-04T04:00:26;16.67;;;11.60;;
173;SDS011;75;48.784;9.364;2022-10-04T04:02:59;24.53;;;13.43;;
173;SDS011;75;48.784;9.364;2022-10-04T04:05:39;24.63;;;15.37;;
173;SDS011;75;48.784;9.364;2022-10-04T04:10:42;32.87;;;19.80;;
173;SDS011;75;48.784;9.364;2022-10-04T04:15:54;27.87;;;16.80;;
173;SDS011;75;48.784;9.364;2022-10-04T04:18:21;20.10;;;13.30;;
173;SDS011;75;48.784;9.364;2022-10-04T04:20:48;23.30;;;13.03;;
173;SDS011;75;48.784;9.364;2022-10-04T04:25:48;18.13;;;11.20;;
173;SDS011;75;48.784;9.364;2022-10-04T04:30:45;26.57;;;15.60;;
173;SDS011;75;48.784;9.364;2022-10-04T04:33:33;27.03;;;15.43;;
173;SDS011;75;48.784;9.364;2022-10-04T04:36:05;24.83;;;13.50;;
173;SDS011;75;48.784;9.364;2022-10-04T04:38:32;27.30;;;13.40;;
173;SDS011;75;48.784;9.364;2022-10-04T04:41:06;27.77;;;14.60;;
173;SDS011;75;48.784;9.364;2022-10-04T04:43:32;22.27;;;13.70;;
173;SDS011;75;48.784;9.364;2022-10-04T04:45:59;17.70;;;10.50;;
173;SDS011;75;48.784;9.364;2022-10-04T04:48:25;23.90;;;12.60;;
173;SDS011;75;48.784;9.364;2022-10-04T04:50:53;30.47;;;16.80;;
173;SDS011;75;48.784;9.364;2022-10-04T04:53:25;33.13;;;18.90;;
173;SDS011;75;48.784;9.364;2022-10-04T04:56:03;41.17;;;21.47;;
173;SDS011;75;48.784;9.364;2022-10-04T04:58:40;40.90;;;19.50;;
173;SDS011;75;48.784;9.364;2022-10-04T05:01:14;31.50;;;18.13;;
173;SDS011;75;48.784;9.364;2022-10-04T05:03:41;32.80;;;18.03;;
173;SDS011;75;48.784;9.364;2022-10-04T05:07:13;28.73;;;17.03;;
173;SDS011;75;48.784;9.364;2022-10-04T05:09:03;31.60;;;16.47;;
173;SDS011;75;48.784;9.364;2022-10-04T05:11:30;28.00;;;16.10;;
173;SDS011;75;48.784;9.364;2022-10-04T05:13:58;29.47;;;16.33;;
173;SDS011;75;48.784;9.364;2022-10-04T05:16:29;23.20;;;14.70;;
173;SDS011;75;48.784;9.364;2022-10-04T05:18:57;37.03;;;17.50;;
173;SDS011;75;48.784;9.364;2022-10-04T05:21:26;32.37;;;17.87;;
173;SDS011;75;48.784;9.364;2022-10-04T05:23:52;31.27;;;18.27;;
173;SDS011;75;48.784;9.364;2022-10-04T05:26:23;36.00;;;19.97;;
173;SDS011;75;48.784;9.364;2022-10-04T05:28:49;31.57;;;19.83;;
173;SDS011;75;48.784;9.364;2022-10-04T05:33:45;34.63;;;19.80;;
173;SDS011;75;48.784;9.364;2022-10-04T05:36:34;31.00;;;18.77;;
173;SDS011;75;48.784;9.364;2022-10-04T05:42:03;35.53;;;21.37;;
173;SDS011;75;48.784;9.364;2022-10-04T05:44:36;37.30;;;21.67;;
173;SDS011;75;48.784;9.364;2022-10-04T05:47:10;38.07;;;20.77;;
173;SDS011;75;48.784;9.364;2022-10-04T05:49:40;46.13;;;20.57;;
173;SDS011;75;48.784;9.364;2022-10-04T05:52:15;32.77;;;20.30;;
173;SDS011;75;48.784;9.364;2022-10-04T05:54:42;39.60;;;20.60;;
173;SDS011;75;48.784;9.364;2022-10-04T06:12:40;28.23;;;14.73;;
173;SDS011;75;48.784;9.364;2022-10-04T06:15:34;32.50;;;17.40;;
173;SDS011;75;48.784;9.364;2022-10-04T06:23:19;27.47;;;15.30;;
173;SDS011;75;48.784;9.364;2022-10-04T06:25:47;35.03;;;17.00;;
173;SDS011;75;48.784;9.364;2022-10-04T06:28:16;35.67;;;21.00;;
173;SDS011;75;48.784;9.364;2022-10-04T06:33:48;51.67;;;33.37;;
173;SDS011;75;48.784;9.364;2022-10-04T06:51:58;49.37;;;25.47;;
173;SDS011;75;48.784;9.364;2022-10-04T06:54:32;47.63;;;24.00;;
173;SDS011;75;48.784;9.364;2022-10-04T06:59:50;40.87;;;23.40;;
173;SDS011;75;48.784;9.364;2022-10-04T07:02:23;44.23;;;22.43;;
173;SDS011;75;48.784;9.364;2022-10-04T07:04:59;37.57;;;21.67;;
173;SDS011;75;48.784;9.364;2022-10-04T07:07:32;43.77;;;25.27;;
173;SDS011;75;48.784;9.364;2022-10-04T07:12:47;33.73;;;19.77;;
173;SDS011;75;48.784;9.364;2022-10-04T07:15:16;34.97;;;19.53;;
173;SDS011;75;48.784;9.364;2022-10-04T07:17:44;28.33;;;17.57;;
173;SDS011;75;48.784;9.364;2022-10-04T07:20:44;34.60;;;17.97;;
173;SDS011;75;48.784;9.364;2022-10-04T07:23:04;52.53;;;25.07;;
173;SDS011;75;48.784;9.364;2022-10-04T07:25:35;44.50;;;22.10;;
173;SDS011;75;48.784;9.364;2022-10-04T07:33:20;30.70;;;14.87;;
173;SDS011;75;48.784;9.364;2022-10-04T07:35:49;22.23;;;14.30;;
173;SDS011;75;48.784;9.364;2022-10-04T07:38:18;22.57;;;13.60;;
173;SDS011;75;48.784;9.364;2022-10-04T07:43:22;35.43;;;23.40;;
173;SDS011;75;48.784;9.364;2022-10-04T07:45:50;30.10;;;19.93;;
173;SDS011;75;48.784;9.364;2022-10-04T07:48:19;24.70;;;15.93;;
173;SDS011;75;48.784;9.364;2022-10-04T07:53:39;26.50;;;15.67;;
173;SDS011;75;48.784;9.364;2022-10-04T08:03:33;20.50;;;11.17;;
173;SDS011;75;48.784;9.364;2022-10-04T08:11:46;18.10;;;10.87;;
173;SDS011;75;48.784;9.364;2022-10-04T08:13:50;18.20;;;10.87;;
173;SDS011;75;48.784;9.364;2022-10-04T08:21:15;26.00;;;12.80;;
173;SDS011;75;48.784;9.364;2022-10-04T08:26:18;23.73;;;13.00;;
173;SDS011;75;48.784;9.364;2022-10-04T08:28:52;25.90;;;11.70;;
173;SDS011;75;48.784;9.364;2022-10-04T08:39:30;21.17;;;11.53;;
173;SDS011;75;48.784;9.364;2022-10-04T08:44:49;31.80;;;15.40;;
173;SDS011;75;48.784;9.364;2022-10-04T08:47:31;25.47;;;12.87;;
173;SDS011;75;48.784;9.364;2022-10-04T09:11:27;12.90;;;8.20;;
173;SDS011;75;48.784;9.364;2022-10-04T09:14:09;18.77;;;9.43;;
173;SDS011;75;48.784;9.364;2022-10-04T09:16:48;11.90;;;8.60;;
173;SDS011;75;48.784;9.364;2022-10-04T09:26:44;16.03;;;9.17;;
173;SDS011;75;48.784;9.364;2022-10-04T09:44:49;14.33;;;7.00;;
173;SDS011;75;48.784;9.364;2022-10-04T09:54:59;8.63;;;4.43;;
173;SDS011;75;48.784;9.364;2022-10-04T10:05:28;8.50;;;4.60;;
173;SDS011;75;48.784;9.364;2022-10-04T10:13:18;10.63;;;6.20;;
173;SDS011;75;48.784;9.364;2022-10-04T10:18:48;9.50;;;5.77;;
173;SDS011;75;48.784;9.364;2022-10-04T10:21:19;8.73;;;5.50;;
173;SDS011;75;48.784;9.364;2022-10-04T10:26:40;11.47;;;4.63;;
173;SDS011;75;48.784;9.364;2022-10-04T10:38:07;9.77;;;5.77;;
173;SDS011;75;48.784;9.364;2022-10-04T10:48:50;13.23;;;7.80;;
173;SDS011;75;48.784;9.364;2022-10-04T10:54:42;13.80;;;6.60;;
173;SDS011;75;48.784;9.364;2022-10-04T10:58:06;11.80;;;7.70;;
173;SDS011;75;48.784;9.364;2022-10-04T11:12:02;7.43;;;5.27;;
173;SDS011;75;48.784;9.364;2022-10-04T11:17:32;12.27;;;5.40;;
173;SDS011;75;48.784;9.364;2022-10-04T11:37:29;5.90;;;4.40;;
173;SDS011;75;48.784;9.364;2022-10-04T11:43:16;8.67;;;5.07;;
173;SDS011;75;48.784;9.364;2022-10-04T11:46:22;7.67;;;4.70;;
173;SDS011;75;48.784;9.364;2022-10-04T11:52:14;7.90;;;4.07;;
173;SDS011;75;48.784;9.364;2022-10-04T12:00:31;6.70;;;4.50;;
173;SDS011;75;48.784;9.364;2022-10-04T12:08:51;9.53;;;4.30;;
173;SDS011;75;48.784;9.364;2022-10-04T12:19:50;8.50;;;4.50;;
173;SDS011;75;48.784;9.364;2022-10-04T12:33:34;5.43;;;4.00;;
173;SDS011;75;48.784;9.364;2022-10-04T12:41:52;7.93;;;4.87;;
173;SDS011;75;48.784;9.364;2022-10-04T12:44:42;6.60;;;4.13;;
173;SDS011;75;48.784;9.364;2022-10-04T12:50:02;5.53;;;4.07;;
173;SDS011;75;48.784;9.364;2022-10-04T12:56:03;9.87;;;5.83;;
173;SDS011;75;48.784;9.364;2022-10-04T13:04:22;8.33;;;4.07;;
173;SDS011;75;48.784;9.364;2022-10-04T13:13:43;9.23;;;4.40;;
173;SDS011;75;48.784;9.364;2022-10-04T13:30:28;6.17;;;4.60;;
173;SDS011;75;48.784;9.364;2022-10-04T13:33:17;7.60;;;4.20;;
173;SDS011;75;48.784;9.364;2022-10-04T13:46:55;6.70;;;4.20;;
173;SDS011;75;48.784;9.364;2022-10-04T13:56:00;7.77;;;4.70;;
173;SDS011;75;48.784;9.364;2022-10-04T13:58:59;6.67;;;3.90;;
173;SDS011;75;48.784;9.364;2022-10-04T14:04:34;8.17;;;4.50;;
173;SDS011;75;48.784;9.364;2022-10-04T14:07:31;5.90;;;4.37;;
173;SDS011;75;48.784;9.364;2022-10-04T14:12:58;6.57;;;4.53;;
173;SDS011;75;48.784;9.364;2022-10-04T14:55:12;7.07;;;3.80;;
173;SDS011;75;48.784;9.364;2022-10-04T15:06:17;6.00;;;4.20;;
173;SDS011;75;48.784;9.364;2022-10-04T15:09:07;7.17;;;4.13;;
173;SDS011;75;48.784;9.364;2022-10-04T15:11:54;6.83;;;4.10;;
173;SDS011;75;48.784;9.364;2022-10-04T15:17:08;7.10;;;4.70;;
173;SDS011;75;48.784;9.364;2022-10-04T15:22:29;10.83;;;4.67;;
173;SDS011;75;48.784;9.364;2022-10-04T15:25:35;10.00;;;4.20;;
173;SDS011;75;48.784;9.364;2022-10-04T15:28:15;6.27;;;4.17;;
173;SDS011;75;48.784;9.364;2022-10-04T15:42:12;7.73;;;4.43;;
173;SDS011;75;48.784;9.364;2022-10-04T15:45:00;6.73;;;4.53;;
173;SDS011;75;48.784;9.364;2022-10-04T15:47:50;7.00;;;5.23;;
173;SDS011;75;48.784;9.364;2022-10-04T16:07:22;9.03;;;5.00;;
173;SDS011;75;48.784;9.364;2022-10-04T16:10:11;7.00;;;5.10;;
173;SDS011;75;48.784;9.364;2022-10-04T16:12:54;10.77;;;6.07;;
173;SDS011;75;48.784;9.364;2022-10-04T16:15:44;17.67;;;10.27;;
173;SDS011;75;48.784;9.364;2022-10-04T16:20:58;15.10;;;9.20;;
173;SDS011;75;48.784;9.364;2022-10-04T16:29:10;8.77;;;6.47;;
173;SDS011;75;48.784;9.364;2022-10-04T16:32:24;12.10;;;7.03;;
173;SDS011;75;48.784;9.364;2022-10-04T16:34:58;10.43;;;7.00;;
173;SDS011;75;48.784;9.364;2022-10-04T16:42:56;9.27;;;5.73;;
173;SDS011;75;48.784;9.364;2022-10-04T17:13:54;30.83;;;21.20;;
173;SDS011;75;48.784;9.364;2022-10-04T17:16:36;25.60;;;16.77;;
173;SDS011;75;48.784;9.364;2022-10-04T17:19:12;19.83;;;13.47;;
173;SDS011;75;48.784;9.364;2022-10-04T17:22:06;49.33;;;39.57;;
173;SDS011;75;48.784;9.364;2022-10-04T17:24:53;28.57;;;23.60;;
173;SDS011;75;48.784;9.364;2022-10-04T17:27:42;21.27;;;16.70;;
173;SDS011;75;48.784;9.364;2022-10-04T17:38:12;30.93;;;21.80;;
173;SDS011;75;48.784;9.364;2022-10-04T17:40:53;32.07;;;23.20;;
173;SDS011;75;48.784;9.364;2022-10-04T17:49:42;20.60;;;12.70;;
173;SDS011;75;48.784;9.364;2022-10-04T17:52:31;19.97;;;11.73;;
173;SDS011;75;48.784;9.364;2022-10-04T17:55:28;14.70;;;10.03;;
173;SDS011;75;48.784;9.364;2022-10-04T17:58:15;17.50;;;9.73;;
173;SDS011;75;48.784;9.364;2022-10-04T18:00:51;18.20;;;9.73;;
173;SDS011;75;48.784;9.364;2022-10-04T18:03:18;13.70;;;9.70;;
173;SDS011;75;48.784;9.364;2022-10-04T18:05:48;14.93;;;9.70;;
173;SDS011;75;48.784;9.364;2022-10-04T18:11:43;13.90;;;9.30;;
173;SDS011;75;48.784;9.364;2022-10-04T18:16:58;10.73;;;8.40;;
173;SDS011;75;48.784;9.364;2022-10-04T18:22:13;13.97;;;9.37;;
173;SDS011;75;48.784;9.364;2022-10-04T18:24:43;14.90;;;9.57;;
173;SDS011;75;48.784;9.364;2022-10-04T18:32:38;13.37;;;9.00;;
173;SDS011;75;48.784;9.364;2022-10-04T18:35:20;13.93;;;9.57;;
173;SDS011;75;48.784;9.364;2022-10-04T18:37:46;15.60;;;9.80;;
173;SDS011;75;48.784;9.364;2022-10-04T18:40:18;12.93;;;9.53;;
173;SDS011;75;48.784;9.364;2022-10-04T18:45:27;14.30;;;10.13;;
173;SDS011;75;48.784;9.364;2022-10-04T18:47:55;13.23;;;10.07;;
173;SDS011;75;48.784;9.364;2022-10-04T18:50:30;13.87;;;10.20;;
173;SDS011;75;48.784;9.364;2022-10-04T18:53:14;17.30;;;10.73;;
173;SDS011;75;48.784;9.364;2022-10-04T18:56:06;16.40;;;11.20;;
173;SDS011;75;48.784;9.364;2022-10-04T18:58:39;17.70;;;11.10;;
173;SDS011;75;48.784;9.364;2022-10-04T19:07:33;19.90;;;11.83;;
173;SDS011;75;48.784;9.364;2022-10-04T19:10:08;19.63;;;15.43;;
173;SDS011;75;48.784;9.364;2022-10-04T19:12:55;16.00;;;12.00;;
173;SDS011;75;48.784;9.364;2022-10-04T19:15:37;17.80;;;12.03;;
173;SDS011;75;48.784;9.364;2022-10-04T19:20:41;22.00;;;12.03;;
173;SDS011;75;48.784;9.364;2022-10-04T19:23:18;21.03;;;12.97;;
173;SDS011;75;48.784;9.364;2022-10-04T19:26:03;18.97;;;12.00;;
173;SDS011;75;48.784;9.364;2022-10-04T19:31:51;21.13;;;11.43;;
173;SDS011;75;48.784;9.364;2022-10-04T19:34:19;15.33;;;11.23;;
173;SDS011;75;48.784;9.364;2022-10-04T19:39:39;13.47;;;10.87;;
173;SDS011;75;48.784;9.364;2022-10-04T19:42:37;20.40;;;11.50;;
173;SDS011;75;48.784;9.364;2022-10-04T19:47:48;17.93;;;12.10;;
173;SDS011;75;48.784;9.364;2022-10-04T19:50:26;15.13;;;10.93;;
173;SDS011;75;48.784;9.364;2022-10-04T19:58:23;21.97;;;11.90;;
173;SDS011;75;48.784;9.364;2022-10-04T20:00:50;19.53;;;12.50;;
173;SDS011;75;48.784;9.364;2022-10-04T20:03:17;22.50;;;12.17;;
173;SDS011;75;48.784;9.364;2022-10-04T20:05:44;19.80;;;12.50;;
173;SDS011;75;48.784;9.364;2022-10-04T20:08:15;18.20;;;11.77;;
173;SDS011;75;48.784;9.364;2022-10-04T20:11:12;20.30;;;12.10;;
173;SDS011;75;48.784;9.364;2022-10-04T20:13:40;15.70;;;11.90;;
173;SDS011;75;48.784;9.364;2022-10-04T20:16:05;16.03;;;11.23;;
173;SDS011;75;48.784;9.364;2022-10-04T20:26:03;18.30;;;11.90;;
173;SDS011;75;48.784;9.364;2022-10-04T20:31:09;19.67;;;13.07;;
173;SDS011;75;48.784;9.364;2022-10-04T20:36:04;18.43;;;13.20;;
173;SDS011;75;48.784;9.364;2022-10-04T20:38:49;20.50;;;12.20;;
173;SDS011;75;48.784;9.364;2022-10-04T20:46:20;17.03;;;12.07;;
173;SDS011;75;48.784;9.364;2022-10-04T20:48:47;25.20;;;13.40;;
173;SDS011;75;48.784;9.364;2022-10-04T20:51:13;18.57;;;12.67;;
173;SDS011;75;48.784;9.364;2022-10-04T20:53:43;21.00;;;12.53;;
173;SDS011;75;48.784;9.364;2022-10-04T20:56:22;21.13;;;12.33;;
173;SDS011;75;48.784;9.364;2022-10-04T20:58:54;22.27;;;12.47;;
173;SDS011;75;48.784;9.364;2022-10-04T21:01:22;20.63;;;12.90;;
173;SDS011;75;48.784;9.364;2022-10-04T21:06:49;18.23;;;12.60;;
173;SDS011;75;48.784;9.364;2022-10-04T21:09:16;21.70;;;13.07;;
173;SDS011;75;48.784;9.364;2022-10-04T21:11:43;16.87;;;12.00;;
173;SDS011;75;48.784;9.364;2022-10-04T21:14:22;21.97;;;12.67;;
173;SDS011;75;48.784;9.364;2022-10-04T21:16:55;16.83;;;11.80;;
173;SDS011;75;48.784;9.364;2022-10-04T21:21:58;21.67;;;13.00;;
173;SDS011;75;48.784;9.364;2022-10-04T21:27:03;21.30;;;14.20;;
173;SDS011;75;48.784;9.364;2022-10-04T21:29:30;19.47;;;12.83;;
173;SDS011;75;48.784;9.364;2022-10-04T21:31:56;20.83;;;14.13;;
173;SDS011;75;48.784;9.364;2022-10-04T21:34:22;22.57;;;14.17;;
173;SDS011;75;48.784;9.364;2022-10-04T21:36:48;22.23;;;13.70;;
173;SDS011;75;48.784;9.364;2022-10-04T21:39:14;23.77;;;14.80;;
173;SDS011;75;48.784;9.364;2022-10-04T21:41:40;21.33;;;13.90;;
173;SDS011;75;48.784;9.364;2022-10-04T21:44:06;19.53;;;13.50;;
173;SDS011;75;48.784;9.364;2022-10-04T21:46:32;22.13;;;13.70;;
173;SDS011;75;48.784;9.364;2022-10-04T21:48:58;25.90;;;14.33;;
173;SDS011;75;48.784;9.364;2022-10-04T21:51:23;23.00;;;15.60;;
173;SDS011;75;48.784;9.364;2022-10-04T21:53:49;27.33;;;15.83;;
173;SDS011;75;48.784;9.364;2022-10-04T21:56:15;23.30;;;14.90;;
173;SDS011;75;48.784;9.364;2022-10-04T21:58:40;25.73;;;14.33;;
173;SDS011;75;48.784;9.364;2022-10-04T22:01:06;26.53;;;14.87;;
173;SDS011;75;48.784;9.364;2022-10-04T22:03:32;24.67;;;15.63;;
173;SDS011;75;48.784;9.364;2022-10-04T22:05:58;27.53;;;14.30;;
173;SDS011;75;48.784;9.364;2022-10-04T22:08:23;20.63;;;14.30;;
173;SDS011;75;48.784;9.364;2022-10-04T22:10:49;25.07;;;15.53;;
173;SDS011;75;48.784;9.364;2022-10-04T22:13:15;25.53;;;15.07;;
173;SDS011;75;48.784;9.364;2022-10-04T22:15:40;27.97;;;15.63;;
173;SDS011;75;48.784;9.364;2022-10-04T22:18:06;27.33;;;15.90;;
173;SDS011;75;48.784;9.364;2022-10-04T22:20:32;28.53;;;16.13;;
173;SDS011;75;48.784;9.364;2022-10-04T22:22:57;29.70;;;16.60;;
173;SDS011;75;48.784;9.364;2022-10-04T22:25:25;26.07;;;15.57;;
173;SDS011;75;48.784;9.364;2022-10-04T22:27:51;27.43;;;17.00;;
173;SDS011;75;48.784;9.364;2022-10-04T22:30:25;28.20;;;17.10;;
173;SDS011;75;48.784;9.364;2022-10-04T22:32:53;26.30;;;17.00;;
173;SDS011;75;48.784;9.364;2022-10-04T22:35:20;25.57;;;16.00;;
173;SDS011;75;48.784;9.364;2022-10-04T22:37:46;28.13;;;16.77;;
173;SDS011;75;48.784;9.364;2022-10-04T22:40:14;27.03;;;17.00;;
173;SDS011;75;48.784;9.364;2022-10-04T22:42:40;32.63;;;17.70;;
173;SDS011;75;48.784;9.364;2022-10-04T22:45:25;29.03;;;16.77;;
173;SDS011;75;48.784;9.364;2022-10-04T22:47:54;22.80;;;15.10;;
173;SDS011;75;48.784;9.364;2022-10-04T22:53:00;28.17;;;16.37;;
173;SDS011;75;48.784;9.364;2022-10-04T22:55:47;24.93;;;17.10;;
173;SDS011;75;48.784;9.364;2022-10-04T22:58:14;30.60;;;16.97;;
173;SDS011;75;48.784;9.364;2022-10-04T23:00:41;27.43;;;16.47;;
173;SDS011;75;48.784;9.364;2022-10-04T23:03:26;26.27;;;16.37;;
173;SDS011;75;48.784;9.364;2022-10-04T23:05:55;30.07;;;16.87;;
173;SDS011;75;48.784;9.364;2022-10-04T23:08:25;27.57;;;17.60;;
173;SDS011;75;48.784;9.364;2022-10-04T23:10:52;26.50;;;17.60;;
173;SDS011;75;48.784;9.364;2022-10-04T23:13:20;26.00;;;16.10;;
173;SDS011;75;48.784;9.364;2022-10-04T23:15:46;30.67;;;18.20;;
173;SDS011;75;48.784;9.364;2022-10-04T23:18:12;29.70;;;17.43;;
173;SDS011;75;48.784;9.364;2022-10-04T23:20:42;26.77;;;16.63;;
173;SDS011;75;48.784;9.364;2022-10-04T23:23:12;31.60;;;17.27;;
173;SDS011;75;48.784;9.364;2022-10-04T23:25:48;25.80;;;16.57;;
173;SDS011;75;48.784;9.364;2022-10-04T23:28:15;28.77;;;16.47;;
173;SDS011;75;48.784;9.364;2022-10-04T23:30:42;31.77;;;15.87;;
173;SDS011;75;48.784;9.364;2022-10-04T23:33:15;26.37;;;16.33;;
173;SDS011;75;48.784;9.364;2022-10-04T23:35:43;26.33;;;16.17;;
173;SDS011;75;48.784;9.364;2022-10-04T23:38:13;29.30;;;15.97;;
173;SDS011;75;48.784;9.364;2022-10-04T23:40:41;27.17;;;17.10;;
173;SDS011;75;48.784;9.364;2022-10-04T23:43:11;28.93;;;17.10;;
173;SDS011;75;48.784;9.364;2022-10-04T23:45:42;25.17;;;16.03;;
173;SDS011;75;48.784;9.364;2022-10-04T23:48:10;34.57;;;17.47;;
173;SDS011;75;48.784;9.364;2022-10-04T23:50:41;31.20;;;17.27;;
173;SDS011;75;48.784;9.364;2022-10-04T23:53:10;32.00;;;17.70;;
173;SDS011;75;48.784;9.364;2022-10-04T23:55:43;29.83;;;18.27;;
173;SDS011;75;48.784;9.364;2022-10-04T23:58:14;35.13;;;17.23;;
